Time;durP1;ratioP1;P1;durP2;ratioP2;P2;SDS_P1;SDS_P2;PMS_P1;PMS_P2;Temp;Humidity;BMP_temperature;BMP_pressure;BME280_temperature;BME280_humidity;BME280_pressure;Samples;Min_cycle;Max_cycle;Signal;HPM_P1;HPM_P2
2023/01/10 00:01:26;;;;;;;1.80;1.70;;;;;;;;;;5012481;28;20985;-71
2023/01/10 00:03:51;;;;;;;2.07;1.70;;;;;;;;;;5012857;28;20444;-71
2023/01/10 00:06:17;;;;;;;5.60;2.40;;;;;;;;;;5016072;28;20186;-70
2023/01/10 00:08:42;;;;;;;1.80;1.70;;;;;;;;;;5032529;28;20302;-72
2023/01/10 00:13:53;;;;;;;3.73;2.33;;;;;;;;;;5032642;28;20876;-70
2023/01/10 00:16:18;;;;;;;3.03;2.73;;;;;;;;;;5032870;28;20420;-71
2023/01/10 00:18:44;;;;;;;12.70;4.37;;;;;;;;;;5031923;28;20478;-71
2023/01/10 00:21:09;;;;;;;3.53;1.93;;;;;;;;;;5031583;28;20258;-71
2023/01/10 00:23:35;;;;;;;2.80;1.93;;;;;;;;;;5032531;28;20624;-71
2023/01/10 00:26:00;;;;;;;4.20;2.30;;;;;;;;;;5032617;28;20187;-72
2023/01/10 00:28:26;;;;;;;2.10;1.87;;;;;;;;;;5032437;28;20195;-71
2023/01/10 00:30:53;;;;;;;2.00;1.80;;;;;;;;;;5031638;28;20615;-71
2023/01/10 00:33:19;;;;;;;1.97;1.77;;;;;;;;;;5031821;28;20171;-71
2023/01/10 00:35:45;;;;;;;2.27;1.90;;;;;;;;;;5032239;28;20786;-71
2023/01/10 00:38:10;;;;;;;2.20;1.83;;;;;;;;;;5031999;28;20183;-71
2023/01/10 00:40:36;;;;;;;1.97;1.87;;;;;;;;;;5031311;28;20167;-71
2023/01/10 00:45:46;;;;;;;3.27;1.90;;;;;;;;;;5032336;28;20187;-71
2023/01/10 00:48:12;;;;;;;12.90;3.37;;;;;;;;;;5031660;28;20434;-71
2023/01/10 00:50:38;;;;;;;5.77;2.33;;;;;;;;;;5031171;28;20415;-71
2023/01/10 00:53:03;;;;;;;2.33;2.00;;;;;;;;;;5032209;28;20774;-71
2023/01/10 00:55:29;;;;;;;3.27;2.33;;;;;;;;;;5032125;28;20243;-71
2023/01/10 00:57:55;;;;;;;4.83;2.30;;;;;;;;;;5032897;28;20191;-70
2023/01/10 01:00:20;;;;;;;2.57;2.10;;;;;;;;;;5033440;28;20179;-71
2023/01/10 01:02:47;;;;;;;2.63;1.73;;;;;;;;;;5033142;28;20683;-70
2023/01/10 01:05:12;;;;;;;3.00;1.83;;;;;;;;;;5035002;28;20187;-71
2023/01/10 01:07:38;;;;;;;2.00;1.80;;;;;;;;;;5018620;28;20416;-70
2023/01/10 01:12:47;;;;;;;2.30;2.10;;;;;;;;;;5011438;28;20207;-71
2023/01/10 01:15:12;;;;;;;2.57;2.00;;;;;;;;;;5011888;28;20459;-71
2023/01/10 01:17:38;;;;;;;1.97;1.60;;;;;;;;;;5011401;28;20172;-70
2023/01/10 01:20:04;;;;;;;4.53;1.90;;;;;;;;;;5011961;28;20289;-70
2023/01/10 01:22:29;;;;;;;2.03;1.83;;;;;;;;;;5010869;28;20812;-71
2023/01/10 01:24:55;;;;;;;2.17;1.70;;;;;;;;;;5011822;28;20465;-71
2023/01/10 01:27:20;;;;;;;2.70;2.00;;;;;;;;;;5012140;28;20180;-71
2023/01/10 01:29:46;;;;;;;2.10;1.90;;;;;;;;;;5017316;28;20203;-71
2023/01/10 01:32:11;;;;;;;5.97;2.20;;;;;;;;;;5030520;28;20310;-71
2023/01/10 01:34:36;;;;;;;5.03;1.70;;;;;;;;;;5032653;28;20193;-70
2023/01/10 01:37:02;;;;;;;6.97;2.40;;;;;;;;;;5014750;28;20214;-71
2023/01/10 01:39:27;;;;;;;8.10;2.03;;;;;;;;;;5032435;28;20284;-71
2023/01/10 01:41:55;;;;;;;2.37;1.70;;;;;;;;;;5032834;28;20250;-72
2023/01/10 01:44:21;;;;;;;2.00;1.67;;;;;;;;;;5033789;28;20182;-72
2023/01/10 01:47:13;;;;;;;1.80;1.60;;;;;;;;;;5032897;28;20410;-71
2023/01/10 01:49:42;;;;;;;4.70;1.93;;;;;;;;;;5034129;28;20199;-71
2023/01/10 01:52:19;;;;;;;1.50;1.37;;;;;;;;;;5033394;28;20410;-71
2023/01/10 01:54:45;;;;;;;2.53;2.27;;;;;;;;;;5032662;28;20442;-70
2023/01/10 01:57:15;;;;;;;4.57;1.90;;;;;;;;;;5032950;28;20909;-70
2023/01/10 01:59:44;;;;;;;10.20;2.07;;;;;;;;;;5033018;28;20315;-72
2023/01/10 02:02:20;;;;;;;4.13;1.90;;;;;;;;;;5014157;28;20479;-70
2023/01/10 02:04:50;;;;;;;2.40;1.90;;;;;;;;;;5013415;28;20470;-71
2023/01/10 02:07:16;;;;;;;3.30;1.90;;;;;;;;;;5028213;28;20433;-71
2023/01/10 02:09:50;;;;;;;1.50;1.40;;;;;;;;;;5037631;28;20504;-70
2023/01/10 02:12:16;;;;;;;6.60;1.30;;;;;;;;;;5040516;28;20433;-70
2023/01/10 02:14:48;;;;;;;3.17;1.73;;;;;;;;;;5038434;28;20418;-70
2023/01/10 02:17:13;;;;;;;2.53;1.20;;;;;;;;;;5023381;28;20510;-70
2023/01/10 02:20:20;;;;;;;1.50;1.30;;;;;;;;;;5024098;28;20552;-70
2023/01/10 02:23:07;;;;;;;1.20;1.10;;;;;;;;;;5018472;28;20207;-69
2023/01/10 02:26:11;;;;;;;1.87;1.03;;;;;;;;;;5015514;28;20422;-70
2023/01/10 02:29:13;;;;;;;2.33;1.50;;;;;;;;;;5030876;28;20444;-70
2023/01/10 02:31:47;;;;;;;1.90;1.50;;;;;;;;;;5009828;28;20457;-70
2023/01/10 02:34:18;;;;;;;2.90;1.50;;;;;;;;;;5011139;28;20454;-70
2023/01/10 02:37:10;;;;;;;1.90;1.50;;;;;;;;;;4992848;28;20515;-69
2023/01/10 02:39:42;;;;;;;1.70;1.47;;;;;;;;;;4970059;28;20439;-70
2023/01/10 02:42:12;;;;;;;6.17;1.77;;;;;;;;;;5009790;28;20478;-69
2023/01/10 02:45:01;;;;;;;3.47;1.50;;;;;;;;;;4995740;28;20411;-70
2023/01/10 02:47:34;;;;;;;1.60;1.40;;;;;;;;;;5014674;28;20502;-69
2023/01/10 02:50:22;;;;;;;1.80;1.70;;;;;;;;;;5014656;28;20819;-69
2023/01/10 02:52:48;;;;;;;4.10;2.30;;;;;;;;;;5014498;28;20419;-69
2023/01/10 02:55:14;;;;;;;2.53;1.83;;;;;;;;;;5016056;28;20419;-71
2023/01/10 02:58:05;;;;;;;3.50;2.03;;;;;;;;;;5020398;28;20172;-70
2023/01/10 03:01:12;;;;;;;2.00;1.53;;;;;;;;;;5016801;28;20184;-71
2023/01/10 03:03:45;;;;;;;1.80;1.70;;;;;;;;;;5010503;28;20462;-70
2023/01/10 03:06:34;;;;;;;14.33;2.90;;;;;;;;;;5017472;28;20425;-70
2023/01/10 03:09:15;;;;;;;3.47;1.43;;;;;;;;;;5032091;28;20496;-70
2023/01/10 03:11:45;;;;;;;1.50;1.13;;;;;;;;;;5037793;28;20421;-71
2023/01/10 03:14:19;;;;;;;1.63;1.20;;;;;;;;;;5037111;28;20414;-71
2023/01/10 03:16:48;;;;;;;1.60;1.20;;;;;;;;;;5035351;28;20418;-70
2023/01/10 03:19:18;;;;;;;1.40;0.90;;;;;;;;;;5039786;28;20469;-71
2023/01/10 03:21:46;;;;;;;5.27;1.37;;;;;;;;;;5035757;28;20553;-69
2023/01/10 03:24:28;;;;;;;6.60;1.30;;;;;;;;;;5034663;28;20435;-70
2023/01/10 03:27:29;;;;;;;4.80;1.60;;;;;;;;;;5034071;28;20415;-70
2023/01/10 03:30:13;;;;;;;2.17;1.33;;;;;;;;;;5027916;28;20423;-70
2023/01/10 03:32:40;;;;;;;2.80;1.40;;;;;;;;;;5013072;28;20406;-70
2023/01/10 03:35:06;;;;;;;5.73;1.70;;;;;;;;;;5013651;28;20419;-69
2023/01/10 03:37:52;;;;;;;5.73;1.10;;;;;;;;;;5013953;28;20461;-70
2023/01/10 03:40:42;;;;;;;1.67;0.90;;;;;;;;;;5013777;28;20904;-70
2023/01/10 03:46:50;;;;;;;2.60;1.00;;;;;;;;;;5014280;28;20493;-70
2023/01/10 03:49:17;;;;;;;12.10;0.90;;;;;;;;;;5014129;28;20772;-70
2023/01/10 03:51:43;;;;;;;2.97;1.00;;;;;;;;;;5013143;28;20450;-70
2023/01/10 03:54:09;;;;;;;3.13;1.20;;;;;;;;;;5013857;28;20415;-70
2023/01/10 03:56:51;;;;;;;1.30;0.97;;;;;;;;;;5012981;28;20251;-70
2023/01/10 03:59:19;;;;;;;1.00;0.90;;;;;;;;;;5013470;28;20249;-69
2023/01/10 04:01:45;;;;;;;6.93;1.27;;;;;;;;;;5011495;28;20826;-70
2023/01/10 04:04:10;;;;;;;8.33;1.40;;;;;;;;;;5013254;28;20433;-70
2023/01/10 04:06:36;;;;;;;1.10;1.00;;;;;;;;;;5018795;28;20178;-72
2023/01/10 04:09:02;;;;;;;2.87;1.00;;;;;;;;;;5065851;22;20226;-66
2023/01/10 04:11:28;;;;;;;11.20;2.10;;;;;;;;;;5051264;28;20463;-66
2023/01/10 04:13:53;;;;;;;4.07;1.20;;;;;;;;;;5051730;28;20194;-66
2023/01/10 04:16:19;;;;;;;5.83;1.03;;;;;;;;;;5052023;28;20179;-67
2023/01/10 04:18:44;;;;;;;1.47;0.90;;;;;;;;;;5051259;28;20222;-66
2023/01/10 04:21:10;;;;;;;1.40;0.90;;;;;;;;;;5050821;28;20241;-67
2023/01/10 04:23:35;;;;;;;1.73;1.00;;;;;;;;;;5051854;28;20170;-67
2023/01/10 04:26:01;;;;;;;1.93;1.00;;;;;;;;;;5051846;28;20170;-66
2023/01/10 04:28:26;;;;;;;1.53;1.00;;;;;;;;;;5051396;28;20655;-66
2023/01/10 04:30:51;;;;;;;4.13;1.60;;;;;;;;;;5029432;28;20175;-66
2023/01/10 04:33:17;;;;;;;1.00;0.70;;;;;;;;;;5031198;28;20179;-67
2023/01/10 04:35:50;;;;;;;1.77;1.40;;;;;;;;;;5031595;28;20543;-66
2023/01/10 04:38:16;;;;;;;1.20;1.10;;;;;;;;;;5031150;28;20191;-67
2023/01/10 04:40:42;;;;;;;3.73;1.10;;;;;;;;;;5030774;28;20600;-67
2023/01/10 04:43:08;;;;;;;2.00;1.03;;;;;;;;;;5030868;28;20167;-66
2023/01/10 04:45:33;;;;;;;6.50;1.20;;;;;;;;;;5031518;28;20422;-67
2023/01/10 04:47:59;;;;;;;3.23;1.30;;;;;;;;;;5030645;28;20419;-68
2023/01/10 04:50:25;;;;;;;4.43;1.50;;;;;;;;;;5030832;28;20186;-68
2023/01/10 04:52:50;;;;;;;1.43;1.13;;;;;;;;;;5031138;28;20178;-67
2023/01/10 04:55:16;;;;;;;3.00;1.20;;;;;;;;;;5031149;28;20419;-67
2023/01/10 04:57:41;;;;;;;2.00;1.10;;;;;;;;;;5031186;28;20183;-67
2023/01/10 05:00:08;;;;;;;1.80;1.30;;;;;;;;;;5030981;28;20672;-67
2023/01/10 05:02:33;;;;;;;2.80;1.40;;;;;;;;;;5030196;28;20208;-66
2023/01/10 05:04:59;;;;;;;3.00;1.20;;;;;;;;;;5031088;28;20415;-66
2023/01/10 05:07:24;;;;;;;4.00;1.30;;;;;;;;;;5029947;28;20685;-68
2023/01/10 05:09:49;;;;;;;5.53;1.90;;;;;;;;;;5030905;28;20211;-66
2023/01/10 05:12:15;;;;;;;5.77;1.90;;;;;;;;;;5029889;28;20191;-68
2023/01/10 05:14:40;;;;;;;4.50;1.80;;;;;;;;;;5030881;28;20186;-67
2023/01/10 05:17:06;;;;;;;2.60;1.80;;;;;;;;;;5030590;28;20209;-69
2023/01/10 05:19:31;;;;;;;8.97;2.57;;;;;;;;;;5030494;28;20573;-66
2023/01/10 05:21:56;;;;;;;3.07;1.90;;;;;;;;;;5029897;28;20209;-68
2023/01/10 05:24:22;;;;;;;6.50;2.07;;;;;;;;;;5026557;28;20207;-66
2023/01/10 05:26:47;;;;;;;3.07;2.70;;;;;;;;;;5041798;28;20204;-68
2023/01/10 05:29:16;;;;;;;9.43;2.13;;;;;;;;;;5049668;28;20265;-66
2023/01/10 05:31:41;;;;;;;4.10;2.47;;;;;;;;;;5028736;28;20175;-67
2023/01/10 05:34:11;;;;;;;6.87;2.80;;;;;;;;;;5029456;28;20469;-68
2023/01/10 05:36:57;;;;;;;5.77;3.43;;;;;;;;;;5046101;28;20174;-67
2023/01/10 05:39:22;;;;;;;3.87;2.73;;;;;;;;;;4966057;28;20551;-67
2023/01/10 05:41:48;;;;;;;3.43;2.57;;;;;;;;;;4965066;28;20981;-66
2023/01/10 05:44:13;;;;;;;6.53;2.50;;;;;;;;;;4965971;28;20182;-66
2023/01/10 05:46:38;;;;;;;7.13;2.60;;;;;;;;;;4965857;28;20178;-65
2023/01/10 05:49:04;;;;;;;3.40;2.03;;;;;;;;;;4965831;28;20367;-68
2023/01/10 05:51:29;;;;;;;5.03;2.57;;;;;;;;;;4965245;28;20355;-66
2023/01/10 05:53:56;;;;;;;4.60;2.07;;;;;;;;;;4965977;28;20205;-66
2023/01/10 05:56:21;;;;;;;6.07;2.70;;;;;;;;;;4965888;28;20346;-68
2023/01/10 05:58:47;;;;;;;4.50;2.30;;;;;;;;;;4965997;28;20436;-67
2023/01/10 06:01:12;;;;;;;4.63;2.67;;;;;;;;;;4959876;28;20214;-66
2023/01/10 06:03:38;;;;;;;7.30;2.70;;;;;;;;;;4959607;28;20281;-66
2023/01/10 06:06:04;;;;;;;8.13;2.80;;;;;;;;;;4961043;28;20181;-65
2023/01/10 06:08:29;;;;;;;6.57;2.00;;;;;;;;;;4964123;28;20221;-69
2023/01/10 06:10:55;;;;;;;3.33;2.23;;;;;;;;;;4958165;28;20185;-68
2023/01/10 06:13:21;;;;;;;6.10;2.40;;;;;;;;;;4956222;28;20192;-67
2023/01/10 06:15:47;;;;;;;5.13;2.73;;;;;;;;;;4975644;28;20188;-66
2023/01/10 06:18:13;;;;;;;4.90;2.40;;;;;;;;;;5036532;28;20544;-67
2023/01/10 06:20:39;;;;;;;6.30;2.37;;;;;;;;;;5033340;28;20275;-68
2023/01/10 06:23:05;;;;;;;3.67;2.10;;;;;;;;;;5034934;28;20929;-66
2023/01/10 06:25:32;;;;;;;2.90;1.93;;;;;;;;;;5031995;28;20460;-67
2023/01/10 06:27:58;;;;;;;5.17;2.70;;;;;;;;;;5036818;28;20244;-68
2023/01/10 06:30:23;;;;;;;9.33;2.67;;;;;;;;;;5029219;28;20433;-67
2023/01/10 06:32:49;;;;;;;9.43;2.63;;;;;;;;;;5038542;28;20214;-67
2023/01/10 06:35:14;;;;;;;6.33;2.67;;;;;;;;;;5034476;28;20184;-67
2023/01/10 06:37:39;;;;;;;5.10;2.67;;;;;;;;;;5035359;28;20661;-69
2023/01/10 06:40:06;;;;;;;10.03;2.90;;;;;;;;;;5027496;28;20278;-66
2023/01/10 06:42:31;;;;;;;4.10;2.43;;;;;;;;;;5025329;28;20588;-68
2023/01/10 06:44:56;;;;;;;8.43;2.40;;;;;;;;;;5026522;28;20418;-67
2023/01/10 06:47:22;;;;;;;3.53;2.30;;;;;;;;;;5025772;28;20179;-67
2023/01/10 06:49:47;;;;;;;6.60;2.53;;;;;;;;;;5026466;28;20188;-67
2023/01/10 06:52:13;;;;;;;5.13;2.37;;;;;;;;;;5025914;28;20258;-67
2023/01/10 06:54:40;;;;;;;15.33;3.27;;;;;;;;;;5044612;28;20520;-67
2023/01/10 06:57:07;;;;;;;5.03;2.90;;;;;;;;;;5046254;28;20206;-66
2023/01/10 06:59:32;;;;;;;8.10;2.90;;;;;;;;;;5046092;28;20484;-67
2023/01/10 07:01:57;;;;;;;20.03;3.53;;;;;;;;;;5044753;28;20500;-67
2023/01/10 07:04:23;;;;;;;15.43;2.80;;;;;;;;;;5046363;28;20238;-66
2023/01/10 07:06:48;;;;;;;13.57;2.80;;;;;;;;;;5038101;28;20184;-64
2023/01/10 07:09:14;;;;;;;28.67;3.87;;;;;;;;;;5026198;28;21010;-68
2023/01/10 07:11:39;;;;;;;22.63;3.20;;;;;;;;;;5025220;28;20176;-65
2023/01/10 07:14:05;;;;;;;5.93;3.20;;;;;;;;;;5031291;28;20233;-66
2023/01/10 07:16:30;;;;;;;6.43;2.37;;;;;;;;;;5040286;28;20210;-65
2023/01/10 07:18:57;;;;;;;5.07;2.60;;;;;;;;;;5024668;28;20199;-64
2023/01/10 07:21:22;;;;;;;8.80;2.57;;;;;;;;;;5028041;28;20221;-65
2023/01/10 07:23:49;;;;;;;5.50;2.20;;;;;;;;;;5036920;28;20441;-66
2023/01/10 07:26:16;;;;;;;6.70;3.03;;;;;;;;;;5038819;28;20171;-64
2023/01/10 07:28:42;;;;;;;6.80;2.50;;;;;;;;;;5048615;28;20801;-66
2023/01/10 07:31:09;;;;;;;6.43;2.27;;;;;;;;;;5033254;28;20472;-65
2023/01/10 07:33:35;;;;;;;5.00;2.10;;;;;;;;;;5030573;28;20483;-65
2023/01/10 07:36:01;;;;;;;4.80;2.00;;;;;;;;;;5032338;28;20887;-66
2023/01/10 07:38:26;;;;;;;20.97;3.37;;;;;;;;;;5031946;28;20194;-65
2023/01/10 07:40:52;;;;;;;89.53;9.73;;;;;;;;;;5031766;28;20774;-66
2023/01/10 07:43:17;;;;;;;16.50;3.33;;;;;;;;;;5032098;28;20175;-65
2023/01/10 07:45:43;;;;;;;26.50;6.07;;;;;;;;;;5032124;28;20602;-64
2023/01/10 07:48:08;;;;;;;10.43;2.53;;;;;;;;;;5031915;28;20172;-65
2023/01/10 07:50:35;;;;;;;7.00;2.37;;;;;;;;;;5031150;28;20246;-66
2023/01/10 07:53:03;;;;;;;5.97;2.23;;;;;;;;;;5032125;28;20638;-64
2023/01/10 07:55:29;;;;;;;2.90;2.13;;;;;;;;;;5032149;28;20426;-65
2023/01/10 07:57:55;;;;;;;4.03;2.43;;;;;;;;;;5032151;28;20418;-66
2023/01/10 08:00:20;;;;;;;6.77;3.00;;;;;;;;;;5031788;28;21180;-64
2023/01/10 08:02:46;;;;;;;9.03;3.13;;;;;;;;;;5030804;28;20294;-67
2023/01/10 08:05:12;;;;;;;6.23;3.03;;;;;;;;;;5032013;28;20214;-66
2023/01/10 08:07:37;;;;;;;5.70;2.03;;;;;;;;;;5046048;28;20174;-66
2023/01/10 08:10:04;;;;;;;14.00;3.30;;;;;;;;;;5051757;28;20252;-66
2023/01/10 08:12:29;;;;;;;8.57;3.10;;;;;;;;;;5051155;28;20163;-64
2023/01/10 08:14:55;;;;;;;9.63;2.80;;;;;;;;;;5051517;28;20770;-66
2023/01/10 08:17:21;;;;;;;12.17;3.60;;;;;;;;;;5051428;28;20179;-66
2023/01/10 08:19:46;;;;;;;5.93;2.17;;;;;;;;;;5051863;28;20921;-66
2023/01/10 08:22:12;;;;;;;8.73;2.10;;;;;;;;;;5050814;28;20214;-66
2023/01/10 08:24:37;;;;;;;6.50;2.53;;;;;;;;;;5051642;28;20175;-66
2023/01/10 08:27:03;;;;;;;11.47;3.30;;;;;;;;;;5051276;28;20187;-66
2023/01/10 08:29:28;;;;;;;10.63;2.80;;;;;;;;;;5049461;28;20586;-67
2023/01/10 08:31:54;;;;;;;7.13;2.90;;;;;;;;;;5030334;28;20168;-66
2023/01/10 08:34:19;;;;;;;5.90;3.53;;;;;;;;;;5031876;28;20595;-67
2023/01/10 08:36:49;;;;;;;31.00;5.77;;;;;;;;;;5013451;28;20600;-65
2023/01/10 08:39:15;;;;;;;77.20;8.33;;;;;;;;;;5032009;28;20196;-66
2023/01/10 08:41:40;;;;;;;26.77;4.40;;;;;;;;;;5030505;28;20527;-69
2023/01/10 08:44:06;;;;;;;35.60;6.00;;;;;;;;;;5031907;28;20171;-66
2023/01/10 08:46:31;;;;;;;14.00;3.63;;;;;;;;;;5031499;28;20180;-66
2023/01/10 08:48:57;;;;;;;23.00;3.57;;;;;;;;;;5030970;28;20191;-65
2023/01/10 08:51:22;;;;;;;113.13;17.73;;;;;;;;;;5030622;28;20988;-66
2023/01/10 08:53:47;;;;;;;17.03;3.83;;;;;;;;;;5031362;28;20728;-67
2023/01/10 08:56:13;;;;;;;6.07;2.60;;;;;;;;;;5031168;28;20179;-66
2023/01/10 08:58:38;;;;;;;11.03;2.33;;;;;;;;;;5031108;28;20675;-66
2023/01/10 09:01:07;;;;;;;25.67;4.50;;;;;;;;;;5030465;28;20388;-66
2023/01/10 09:03:33;;;;;;;42.57;4.93;;;;;;;;;;5030826;28;20180;-66
2023/01/10 09:05:59;;;;;;;43.10;6.40;;;;;;;;;;5031746;28;20417;-65
2023/01/10 09:08:25;;;;;;;48.90;7.33;;;;;;;;;;5050867;28;20296;-66
2023/01/10 09:10:50;;;;;;;19.03;5.07;;;;;;;;;;5050915;28;20432;-67
2023/01/10 09:13:16;;;;;;;28.73;5.27;;;;;;;;;;5053690;28;20531;-65
2023/01/10 09:15:42;;;;;;;73.40;8.57;;;;;;;;;;5051150;28;20202;-65
2023/01/10 09:18:10;;;;;;;31.23;4.87;;;;;;;;;;5050238;28;20179;-65
2023/01/10 09:20:38;;;;;;;8.77;2.53;;;;;;;;;;5049991;28;20417;-66
2023/01/10 09:23:08;;;;;;;15.83;2.17;;;;;;;;;;5050543;28;20449;-65
2023/01/10 09:25:34;;;;;;;9.37;2.10;;;;;;;;;;5050675;28;20439;-66
2023/01/10 09:28:01;;;;;;;10.87;2.80;;;;;;;;;;5050342;28;20868;-66
2023/01/10 09:30:27;;;;;;;9.40;2.27;;;;;;;;;;5039963;28;20175;-66
2023/01/10 09:32:54;;;;;;;3.63;2.20;;;;;;;;;;5030215;28;20411;-67
2023/01/10 09:35:19;;;;;;;4.50;2.50;;;;;;;;;;5030776;28;20478;-64
2023/01/10 09:37:45;;;;;;;8.60;2.43;;;;;;;;;;5030615;28;20482;-66
2023/01/10 09:40:29;;;;;;;8.27;3.00;;;;;;;;;;5030390;28;20223;-67
2023/01/10 09:43:12;;;;;;;7.73;2.97;;;;;;;;;;5029928;28;20633;-66
2023/01/10 09:45:47;;;;;;;6.30;2.50;;;;;;;;;;5030432;28;20774;-66
2023/01/10 09:48:36;;;;;;;52.77;10.83;;;;;;;;;;5029539;28;20798;-68
2023/01/10 09:51:22;;;;;;;11.60;3.40;;;;;;;;;;5028838;28;20545;-66
2023/01/10 09:53:51;;;;;;;9.27;2.90;;;;;;;;;;5029033;28;20504;-66
2023/01/10 09:56:17;;;;;;;26.13;4.80;;;;;;;;;;5029911;28;20820;-67
2023/01/10 09:58:44;;;;;;;118.50;11.87;;;;;;;;;;5030007;28;20430;-66
2023/01/10 10:01:23;;;;;;;27.57;4.33;;;;;;;;;;5029706;28;20457;-67
2023/01/10 10:03:58;;;;;;;18.87;3.50;;;;;;;;;;5030136;28;20434;-67
2023/01/10 10:06:24;;;;;;;3.13;2.17;;;;;;;;;;5034703;28;20906;-67
2023/01/10 10:08:51;;;;;;;7.10;1.93;;;;;;;;;;5050653;28;20456;-66
2023/01/10 10:11:25;;;;;;;3.23;1.70;;;;;;;;;;5049207;28;20181;-67
2023/01/10 10:13:51;;;;;;;4.50;2.20;;;;;;;;;;5050092;28;20447;-68
2023/01/10 10:16:31;;;;;;;6.10;2.17;;;;;;;;;;5034484;28;20410;-67
2023/01/10 10:19:18;;;;;;;31.33;6.77;;;;;;;;;;5050324;28;20199;-67
2023/01/10 10:22:15;;;;;;;8.63;2.37;;;;;;;;;;5050366;28;20448;-67
2023/01/10 10:25:01;;;;;;;10.10;2.60;;;;;;;;;;5054121;28;20759;-66
2023/01/10 10:27:35;;;;;;;8.47;2.70;;;;;;;;;;5054013;28;20413;-67
2023/01/10 10:30:41;;;;;;;16.03;3.17;;;;;;;;;;5047914;28;20467;-66
2023/01/10 10:33:39;;;;;;;6.43;2.50;;;;;;;;;;5036954;28;20461;-66
2023/01/10 10:36:14;;;;;;;11.83;2.90;;;;;;;;;;5012018;28;20419;-68
2023/01/10 10:38:43;;;;;;;10.03;2.83;;;;;;;;;;5032775;28;20760;-66
2023/01/10 10:41:34;;;;;;;19.00;4.93;;;;;;;;;;5029408;28;20438;-67
2023/01/10 10:44:17;;;;;;;10.53;3.43;;;;;;;;;;5030155;28;20446;-66
2023/01/10 10:46:43;;;;;;;10.20;3.20;;;;;;;;;;5030181;28;20438;-67
2023/01/10 10:49:29;;;;;;;5.83;2.90;;;;;;;;;;5029601;28;20866;-65
2023/01/10 10:51:54;;;;;;;26.23;5.60;;;;;;;;;;5028942;28;20179;-66
2023/01/10 10:54:20;;;;;;;47.60;6.43;;;;;;;;;;5029730;28;20476;-66
2023/01/10 10:56:46;;;;;;;5.90;3.00;;;;;;;;;;5029355;28;20176;-66
2023/01/10 10:59:18;;;;;;;11.37;3.70;;;;;;;;;;5029601;28;20539;-66
2023/01/10 11:01:48;;;;;;;8.90;3.47;;;;;;;;;;5028050;28;20581;-66
2023/01/10 11:04:17;;;;;;;4.20;2.27;;;;;;;;;;5030489;28;20413;-66
2023/01/10 11:06:47;;;;;;;10.90;2.60;;;;;;;;;;5038274;28;20428;-65
2023/01/10 11:09:18;;;;;;;6.23;2.97;;;;;;;;;;5053202;28;20445;-65
2023/01/10 11:11:46;;;;;;;4.43;2.27;;;;;;;;;;5052589;28;20864;-66
2023/01/10 11:14:12;;;;;;;46.93;8.10;;;;;;;;;;5053606;28;20411;-67
2023/01/10 11:16:43;;;;;;;41.23;6.17;;;;;;;;;;5053491;28;20503;-65
2023/01/10 11:19:25;;;;;;;15.80;4.23;;;;;;;;;;5054044;28;20421;-67
2023/01/10 11:22:00;;;;;;;49.90;7.10;;;;;;;;;;5053158;28;20457;-67
2023/01/10 11:24:27;;;;;;;7.50;2.50;;;;;;;;;;5053494;28;20401;-66
2023/01/10 11:26:54;;;;;;;6.33;3.20;;;;;;;;;;5052803;28;20752;-68
2023/01/10 11:29:37;;;;;;;9.53;2.57;;;;;;;;;;5052034;28;20584;-68
2023/01/10 11:32:15;;;;;;;6.70;2.70;;;;;;;;;;5031666;28;20406;-67
2023/01/10 11:34:54;;;;;;;6.23;2.47;;;;;;;;;;5032984;28;20429;-67
2023/01/10 11:37:28;;;;;;;11.37;2.10;;;;;;;;;;5032940;28;20758;-65
2023/01/10 11:40:19;;;;;;;4.90;2.37;;;;;;;;;;5032814;28;20444;-67
2023/01/10 11:42:46;;;;;;;26.17;4.73;;;;;;;;;;5025306;28;20465;-67
2023/01/10 11:45:17;;;;;;;5.73;2.50;;;;;;;;;;5032766;28;20509;-69
2023/01/10 11:48:08;;;;;;;5.57;2.40;;;;;;;;;;5032362;28;20418;-66
2023/01/10 11:50:40;;;;;;;3.60;2.37;;;;;;;;;;5031939;28;20419;-66
2023/01/10 11:53:20;;;;;;;4.50;3.00;;;;;;;;;;5032813;28;20798;-65
2023/01/10 11:55:47;;;;;;;8.57;3.17;;;;;;;;;;5032392;28;20417;-67
2023/01/10 11:58:14;;;;;;;30.53;5.63;;;;;;;;;;5032430;28;20468;-65
2023/01/10 12:00:47;;;;;;;41.60;5.50;;;;;;;;;;5031808;28;20513;-67
2023/01/10 12:03:16;;;;;;;24.63;3.43;;;;;;;;;;5032548;28;20430;-66
2023/01/10 12:05:50;;;;;;;38.17;6.23;;;;;;;;;;5032904;28;20410;-66
2023/01/10 12:08:44;;;;;;;7.17;2.20;;;;;;;;;;5051331;28;20451;-67
2023/01/10 12:11:16;;;;;;;30.63;4.07;;;;;;;;;;5038484;28;20490;-66
2023/01/10 12:13:43;;;;;;;22.33;3.97;;;;;;;;;;5034107;28;20425;-67
2023/01/10 12:16:15;;;;;;;7.53;2.30;;;;;;;;;;5051366;28;20409;-65
2023/01/10 12:18:40;;;;;;;61.77;5.60;;;;;;;;;;5033693;28;20954;-67
2023/01/10 12:21:08;;;;;;;165.20;18.10;;;;;;;;;;5050905;28;20445;-68
2023/01/10 12:23:40;;;;;;;41.57;7.23;;;;;;;;;;5051946;28;20178;-65
2023/01/10 12:26:07;;;;;;;25.90;4.53;;;;;;;;;;5051553;28;20414;-65
2023/01/10 12:28:35;;;;;;;43.97;7.20;;;;;;;;;;5051396;28;20459;-67
2023/01/10 12:31:02;;;;;;;19.83;3.33;;;;;;;;;;5036161;28;20418;-65
2023/01/10 12:33:33;;;;;;;15.83;2.70;;;;;;;;;;5031252;28;20513;-67
2023/01/10 12:36:11;;;;;;;4.00;1.90;;;;;;;;;;5031553;28;20523;-68
2023/01/10 12:39:03;;;;;;;7.10;3.00;;;;;;;;;;5031797;28;20460;-67
2023/01/10 12:44:24;;;;;;;4.70;1.70;;;;;;;;;;5031873;28;20402;-65
2023/01/10 12:46:56;;;;;;;6.27;2.00;;;;;;;;;;5030975;28;20421;-65
2023/01/10 12:49:28;;;;;;;75.63;9.47;;;;;;;;;;5031588;28;20450;-66
2023/01/10 12:51:57;;;;;;;11.07;2.40;;;;;;;;;;5030681;28;20414;-66
2023/01/10 12:54:27;;;;;;;10.43;2.97;;;;;;;;;;5032799;28;20497;-66
2023/01/10 12:56:53;;;;;;;24.43;4.57;;;;;;;;;;5033984;28;20512;-65
2023/01/10 12:59:25;;;;;;;5.30;1.90;;;;;;;;;;5036417;28;20519;-67
2023/01/10 13:01:55;;;;;;;21.63;3.50;;;;;;;;;;5040941;28;20547;-67
2023/01/10 13:04:24;;;;;;;7.00;2.00;;;;;;;;;;5051263;28;20406;-65
2023/01/10 13:06:50;;;;;;;13.70;2.40;;;;;;;;;;5043217;28;20721;-67
2023/01/10 13:09:19;;;;;;;10.63;1.70;;;;;;;;;;5038793;28;20938;-65
2023/01/10 13:11:53;;;;;;;10.13;2.97;;;;;;;;;;5029677;28;20411;-66
2023/01/10 13:14:25;;;;;;;48.30;7.07;;;;;;;;;;5013738;28;20921;-68
2023/01/10 13:17:03;;;;;;;5.27;2.10;;;;;;;;;;5030334;28;20410;-65
2023/01/10 13:19:29;;;;;;;13.53;2.00;;;;;;;;;;5029625;28;20504;-64
2023/01/10 13:22:33;;;;;;;12.73;5.20;;;;;;;;;;5046695;28;20548;-67
2023/01/10 13:25:00;;;;;;;7.53;4.20;;;;;;;;;;4991269;28;20181;-67
2023/01/10 13:27:33;;;;;;;9.03;3.77;;;;;;;;;;5023897;28;20461;-66
2023/01/10 13:29:59;;;;;;;7.43;3.10;;;;;;;;;;5044156;28;20460;-65
2023/01/10 13:32:29;;;;;;;3.40;2.30;;;;;;;;;;5037882;28;20425;-67
2023/01/10 13:35:17;;;;;;;4.60;2.30;;;;;;;;;;5030709;28;20438;-67
2023/01/10 13:37:49;;;;;;;36.97;7.10;;;;;;;;;;5030313;28;20799;-66
2023/01/10 13:40:33;;;;;;;15.67;3.93;;;;;;;;;;5029946;28;20446;-65
2023/01/10 13:43:33;;;;;;;21.30;3.83;;;;;;;;;;5030305;28;20481;-66
2023/01/10 13:46:16;;;;;;;4.43;1.70;;;;;;;;;;5030452;28;20497;-67
2023/01/10 13:48:48;;;;;;;16.63;2.50;;;;;;;;;;5040997;28;20445;-68
2023/01/10 13:51:18;;;;;;;18.77;2.83;;;;;;;;;;5049451;28;20429;-65
2023/01/10 13:53:56;;;;;;;4.67;2.10;;;;;;;;;;5049942;28;20406;-67
2023/01/10 13:56:32;;;;;;;9.10;1.70;;;;;;;;;;5049862;28;20441;-66
2023/01/10 14:04:30;;;;;;;6.37;1.70;;;;;;;;;;5050861;28;20522;-66
2023/01/10 14:06:59;;;;;;;7.13;2.23;;;;;;;;;;5049815;28;20416;-66
2023/01/10 14:09:31;;;;;;;5.03;1.60;;;;;;;;;;5049765;28;20444;-65
2023/01/10 14:12:07;;;;;;;10.30;1.70;;;;;;;;;;5049301;28;20870;-67
2023/01/10 14:14:37;;;;;;;13.13;2.03;;;;;;;;;;5049897;28;20504;-67
2023/01/10 14:17:14;;;;;;;12.03;2.47;;;;;;;;;;5049630;28;20417;-67
2023/01/10 14:19:43;;;;;;;7.53;1.83;;;;;;;;;;5049922;28;20441;-66
2023/01/10 14:22:32;;;;;;;7.80;2.30;;;;;;;;;;5048557;28;20453;-67
2023/01/10 14:25:00;;;;;;;10.13;2.00;;;;;;;;;;5049879;28;20744;-66
2023/01/10 14:27:31;;;;;;;12.10;2.77;;;;;;;;;;5049770;28;20901;-66
2023/01/10 14:29:59;;;;;;;24.80;3.10;;;;;;;;;;5043833;28;20846;-64
2023/01/10 14:32:37;;;;;;;10.87;2.97;;;;;;;;;;5028447;28;20577;-66
2023/01/10 14:35:06;;;;;;;6.80;1.93;;;;;;;;;;5012034;28;20899;-66
2023/01/10 14:37:51;;;;;;;5.83;1.50;;;;;;;;;;5029671;28;20415;-66
2023/01/10 14:40:43;;;;;;;11.70;1.43;;;;;;;;;;5031267;28;20417;-65
2023/01/10 14:43:15;;;;;;;21.83;3.60;;;;;;;;;;5036370;28;20457;-67
2023/01/10 14:46:05;;;;;;;4.83;1.40;;;;;;;;;;5053498;28;20406;-67
2023/01/10 14:48:33;;;;;;;4.93;2.03;;;;;;;;;;5053261;28;20429;-65
2023/01/10 14:51:07;;;;;;;8.17;1.63;;;;;;;;;;5052577;28;20412;-65
2023/01/10 14:53:33;;;;;;;6.73;2.03;;;;;;;;;;5053446;28;20850;-67
2023/01/10 14:55:58;;;;;;;16.43;3.10;;;;;;;;;;5053430;28;20409;-66
2023/01/10 14:58:24;;;;;;;27.47;4.13;;;;;;;;;;5053689;28;20194;-67
2023/01/10 15:00:52;;;;;;;13.67;2.83;;;;;;;;;;5052654;28;20687;-68
2023/01/10 15:03:21;;;;;;;20.33;3.10;;;;;;;;;;5056350;28;20211;-65
2023/01/10 15:05:53;;;;;;;6.70;2.00;;;;;;;;;;5038883;28;20500;-66
2023/01/10 15:08:27;;;;;;;34.17;6.57;;;;;;;;;;5036151;28;20541;-67
2023/01/10 15:10:58;;;;;;;25.73;4.03;;;;;;;;;;5033294;28;20477;-66
2023/01/10 15:13:27;;;;;;;66.47;10.20;;;;;;;;;;5034471;28;20527;-67
2023/01/10 15:15:53;;;;;;;47.90;5.90;;;;;;;;;;5034348;28;20416;-66
2023/01/10 15:18:32;;;;;;;20.10;2.70;;;;;;;;;;5034190;28;20805;-67